Time;durP1;ratioP1;P1;durP2;ratioP2;P2;SDS_P1;SDS_P2;PMS_P1;PMS_P2;Temp;Humidity;BMP_temperature;BMP_pressure;BME280_temperature;BME280_humidity;BME280_pressure;Samples;Min_cycle;Max_cycle;Signal;HPM_P1;HPM_P2
2023/06/10 00:01:38;;;;;;;3.08;1.33;;;16.80;99.90;;;;;;5091976;28;20240;-78
2023/06/10 00:04:06;;;;;;;3.15;1.45;;;16.80;99.90;;;;;;5091160;28;20271;-78
2023/06/10 00:06:35;;;;;;;4.90;2.65;;;16.80;99.90;;;;;;5091364;28;20259;-77
2023/06/10 00:09:04;;;;;;;5.45;1.60;;;16.70;99.90;;;;;;5091383;28;20213;-78
2023/06/10 00:11:31;;;;;;;3.38;1.73;;;16.70;99.90;;;;;;5091511;28;20585;-76
2023/06/10 00:13:59;;;;;;;7.15;2.72;;;16.80;99.90;;;;;;5091017;28;20245;-77
2023/06/10 00:16:26;;;;;;;2.03;1.50;;;16.80;99.90;;;;;;5091275;28;20240;-78
2023/06/10 00:18:55;;;;;;;2.47;1.15;;;16.60;99.90;;;;;;5091080;28;20241;-75
2023/06/10 00:21:24;;;;;;;2.03;1.42;;;16.60;99.90;;;;;;5091241;28;20253;-75
2023/06/10 00:23:51;;;;;;;5.35;1.63;;;16.60;99.90;;;;;;5090939;28;20225;-75
2023/06/10 00:26:18;;;;;;;1.70;1.02;;;16.60;99.90;;;;;;5091027;28;20673;-73
2023/06/10 00:28:45;;;;;;;5.43;1.88;;;16.60;99.90;;;;;;5090858;28;20237;-76
2023/06/10 00:31:14;;;;;;;2.17;1.40;;;16.70;99.90;;;;;;5091279;28;20205;-76
2023/06/10 00:33:41;;;;;;;4.45;1.20;;;16.60;99.90;;;;;;5091115;28;20290;-70
2023/06/10 00:36:07;;;;;;;10.57;1.55;;;16.70;99.90;;;;;;5091279;28;20205;-76
2023/06/10 00:38:34;;;;;;;3.20;1.20;;;16.70;99.90;;;;;;5090918;28;20237;-76
2023/06/10 00:41:01;;;;;;;1.40;1.05;;;16.70;99.90;;;;;;5090523;28;20217;-76
2023/06/10 00:43:28;;;;;;;2.70;1.13;;;16.70;99.90;;;;;;5090858;28;20257;-78
2023/06/10 00:45:55;;;;;;;3.08;1.65;;;16.70;99.90;;;;;;5090697;28;20241;-80
2023/06/10 00:48:24;;;;;;;3.72;1.27;;;16.70;99.90;;;;;;5090805;28;20270;-78
2023/06/10 00:50:51;;;;;;;1.95;1.38;;;16.70;99.90;;;;;;5090553;28;20201;-80
2023/06/10 00:53:19;;;;;;;4.05;1.65;;;16.70;99.90;;;;;;5090805;28;20239;-80
2023/06/10 00:55:46;;;;;;;1.88;1.42;;;16.60;99.90;;;;;;5090116;28;20229;-80
2023/06/10 00:58:13;;;;;;;3.08;1.58;;;16.60;99.90;;;;;;5090953;28;20231;-77
2023/06/10 01:00:40;;;;;;;6.78;1.42;;;16.70;99.90;;;;;;5091253;28;20564;-77
2023/06/10 01:03:07;;;;;;;7.05;1.15;;;16.60;99.90;;;;;;5090241;28;20233;-77
2023/06/10 01:05:36;;;;;;;2.45;1.45;;;16.70;99.90;;;;;;5090635;28;20216;-75
2023/06/10 01:08:10;;;;;;;2.78;1.40;;;16.70;99.90;;;;;;5090056;28;20198;-71
2023/06/10 01:10:39;;;;;;;3.33;1.33;;;16.60;99.90;;;;;;5090696;28;20209;-75
2023/06/10 01:13:11;;;;;;;2.50;1.50;;;16.60;99.90;;;;;;5090295;28;20202;-75
2023/06/10 01:15:39;;;;;;;7.45;1.55;;;16.60;99.90;;;;;;5090743;28;20600;-76
2023/06/10 01:18:09;;;;;;;4.40;1.10;;;16.60;99.90;;;;;;5089891;28;20711;-74
2023/06/10 01:20:40;;;;;;;2.13;1.77;;;16.60;99.90;;;;;;5090442;28;20292;-73
2023/06/10 01:23:08;;;;;;;1.13;1.02;;;16.60;99.90;;;;;;5090416;28;20244;-75
2023/06/10 01:25:40;;;;;;;2.15;1.58;;;16.60;99.90;;;;;;5090671;28;20265;-69
2023/06/10 01:28:13;;;;;;;2.90;1.20;;;16.60;99.90;;;;;;5090433;28;20223;-75
2023/06/10 01:30:47;;;;;;;2.30;1.08;;;16.50;99.90;;;;;;5090675;28;20286;-74
2023/06/10 01:33:18;;;;;;;1.35;1.10;;;16.50;99.90;;;;;;5090131;28;20205;-76
2023/06/10 01:35:45;;;;;;;4.50;1.20;;;16.60;99.90;;;;;;5089931;28;20680;-70
2023/06/10 01:38:16;;;;;;;1.10;0.90;;;16.60;99.90;;;;;;5090403;28;20201;-69
2023/06/10 01:40:44;;;;;;;2.22;1.40;;;16.60;99.90;;;;;;5090252;28;20233;-75
2023/06/10 01:43:11;;;;;;;1.15;1.00;;;16.50;99.90;;;;;;5090523;28;20659;-69
2023/06/10 01:45:38;;;;;;;2.75;1.40;;;16.50;99.90;;;;;;5090150;28;20269;-76
2023/06/10 01:48:05;;;;;;;4.00;1.65;;;16.60;99.90;;;;;;5095218;28;20263;-76
2023/06/10 01:50:32;;;;;;;2.35;1.17;;;16.50;99.90;;;;;;5098049;28;20734;-70
2023/06/10 01:53:00;;;;;;;2.65;1.02;;;16.50;99.90;;;;;;5089757;28;20301;-76
2023/06/10 01:55:28;;;;;;;3.30;1.33;;;16.50;99.90;;;;;;5089930;28;20752;-75
2023/06/10 01:57:55;;;;;;;4.10;1.40;;;16.50;99.90;;;;;;5089845;28;20244;-76
2023/06/10 02:00:22;;;;;;;2.42;1.42;;;16.50;99.90;;;;;;5089837;28;20237;-76
2023/06/10 02:02:49;;;;;;;2.80;1.40;;;16.40;99.90;;;;;;5089765;28;20298;-76
2023/06/10 02:05:16;;;;;;;1.58;1.25;;;16.50;99.90;;;;;;5090097;28;20597;-77
2023/06/10 02:07:43;;;;;;;3.03;1.10;;;16.50;99.90;;;;;;5089978;28;20226;-74
2023/06/10 02:10:10;;;;;;;2.30;1.27;;;16.50;99.90;;;;;;5090468;28;20202;-72
2023/06/10 02:12:39;;;;;;;3.17;1.20;;;16.50;99.90;;;;;;5090001;28;20237;-73
2023/06/10 02:15:06;;;;;;;9.60;1.80;;;16.50;99.90;;;;;;5089459;28;20210;-75
2023/06/10 02:17:33;;;;;;;1.50;1.38;;;16.50;99.90;;;;;;5090006;28;20237;-71
2023/06/10 02:20:04;;;;;;;1.48;1.35;;;16.40;99.90;;;;;;5089642;28;20296;-70
2023/06/10 02:22:31;;;;;;;2.60;1.70;;;16.40;99.90;;;;;;5092662;28;21066;-70
2023/06/10 02:24:57;;;;;;;6.38;2.03;;;16.40;99.90;;;;;;5093084;28;20263;-76
2023/06/10 02:27:25;;;;;;;2.63;1.13;;;16.30;99.90;;;;;;5093459;28;20232;-70
2023/06/10 02:29:53;;;;;;;2.00;1.30;;;16.30;99.90;;;;;;5092903;28;20296;-76
2023/06/10 02:32:20;;;;;;;1.90;1.25;;;16.30;99.90;;;;;;5093540;28;20682;-71
2023/06/10 02:34:47;;;;;;;5.45;1.85;;;16.30;99.90;;;;;;5092972;28;20245;-71
2023/06/10 02:37:14;;;;;;;1.85;1.30;;;16.30;99.90;;;;;;5093328;28;20288;-77
2023/06/10 02:39:41;;;;;;;3.30;1.40;;;16.30;99.90;;;;;;5093307;28;20623;-71
2023/06/10 02:42:08;;;;;;;2.50;1.90;;;16.30;99.90;;;;;;5093063;28;20292;-78
2023/06/10 02:44:35;;;;;;;2.83;1.58;;;16.30;99.90;;;;;;5092903;28;20275;-75
2023/06/10 02:47:04;;;;;;;3.28;1.83;;;16.30;99.90;;;;;;5092501;28;20266;-73
2023/06/10 02:49:31;;;;;;;2.15;1.35;;;16.30;99.90;;;;;;5093212;28;20677;-73
2023/06/10 02:51:58;;;;;;;1.50;1.20;;;16.20;99.90;;;;;;5092377;28;20237;-72
2023/06/10 02:54:25;;;;;;;2.65;1.50;;;16.20;99.90;;;;;;5092778;28;20304;-77
2023/06/10 02:56:54;;;;;;;11.38;1.55;;;16.20;99.90;;;;;;5092489;28;20244;-71
2023/06/10 02:59:21;;;;;;;7.55;1.92;;;16.20;99.90;;;;;;5092992;28;20595;-70
2023/06/10 03:01:48;;;;;;;2.67;1.75;;;16.20;99.90;;;;;;5092669;28;20291;-79
2023/06/10 03:04:16;;;;;;;4.05;1.60;;;16.20;99.90;;;;;;5092589;28;20750;-72
2023/06/10 03:06:45;;;;;;;4.30;1.58;;;16.20;99.90;;;;;;5092660;28;20248;-72
2023/06/10 03:09:13;;;;;;;4.10;1.98;;;16.20;99.90;;;;;;5092673;28;20207;-73
2023/06/10 03:11:40;;;;;;;1.48;1.30;;;16.20;99.90;;;;;;5093184;28;20213;-73
2023/06/10 03:14:07;;;;;;;2.45;1.85;;;16.20;99.90;;;;;;5092355;28;20214;-77
2023/06/10 03:16:34;;;;;;;3.33;1.27;;;16.10;99.90;;;;;;5092686;28;20233;-72
2023/06/10 03:19:01;;;;;;;4.18;1.20;;;16.10;99.90;;;;;;5091793;28;20766;-77
2023/06/10 03:21:29;;;;;;;4.22;1.52;;;16.10;99.90;;;;;;5092417;28;20197;-70
2023/06/10 03:23:56;;;;;;;4.53;2.13;;;16.10;99.90;;;;;;5092144;28;20212;-73
2023/06/10 03:26:23;;;;;;;3.85;1.38;;;16.10;99.90;;;;;;5092107;28;20244;-73
2023/06/10 03:28:50;;;;;;;18.40;4.30;;;16.10;99.90;;;;;;5091976;28;20236;-69
2023/06/10 03:31:17;;;;;;;5.75;1.77;;;16.10;99.90;;;;;;5092067;28;20236;-76
2023/06/10 03:33:44;;;;;;;4.00;2.03;;;16.20;99.90;;;;;;5091559;28;20205;-71
2023/06/10 03:36:11;;;;;;;2.33;1.50;;;16.20;99.90;;;;;;5092081;28;20244;-71
2023/06/10 03:38:39;;;;;;;4.97;1.90;;;16.20;99.90;;;;;;5092686;28;20206;-74
2023/06/10 03:41:06;;;;;;;8.85;2.13;;;16.10;99.90;;;;;;5091759;28;20693;-75
2023/06/10 03:43:33;;;;;;;5.53;1.83;;;16.20;99.90;;;;;;5092200;28;20681;-76
2023/06/10 03:46:00;;;;;;;2.65;1.45;;;16.10;99.90;;;;;;5091438;28;20239;-69
2023/06/10 03:48:27;;;;;;;4.50;1.95;;;16.10;99.90;;;;;;5091746;28;20265;-76
2023/06/10 03:50:54;;;;;;;3.75;2.08;;;16.10;99.90;;;;;;5091687;28;20248;-75
2023/06/10 03:53:21;;;;;;;3.42;1.48;;;16.00;99.90;;;;;;5091691;28;20237;-75
2023/06/10 03:55:49;;;;;;;7.80;1.98;;;16.00;99.90;;;;;;5091161;28;20228;-68
2023/06/10 03:58:17;;;;;;;2.03;1.50;;;16.00;99.90;;;;;;5091866;28;20240;-71
2023/06/10 04:00:45;;;;;;;2.58;1.88;;;16.00;99.90;;;;;;5091291;28;20205;-70
2023/06/10 04:03:14;;;;;;;4.70;2.40;;;16.00;99.90;;;;;;5091592;28;20209;-71
2023/06/10 04:05:41;;;;;;;2.42;1.83;;;16.00;99.90;;;;;;5091570;28;20716;-70
2023/06/10 04:08:08;;;;;;;4.72;1.67;;;16.00;99.90;;;;;;5091866;28;20237;-74
2023/06/10 04:10:35;;;;;;;2.78;1.30;;;16.00;99.90;;;;;;5091397;28;20202;-71
2023/06/10 04:13:03;;;;;;;5.88;1.63;;;16.00;99.90;;;;;;5091304;28;20213;-71
2023/06/10 04:15:34;;;;;;;4.38;1.70;;;15.90;99.90;;;;;;5091133;28;20605;-72
2023/06/10 04:18:02;;;;;;;4.07;1.42;;;15.90;99.90;;;;;;5090699;28;20630;-74
2023/06/10 04:20:29;;;;;;;3.15;2.03;;;15.90;99.90;;;;;;5091031;28;20734;-75
2023/06/10 04:22:56;;;;;;;3.50;1.67;;;15.90;99.90;;;;;;5090600;28;20212;-75
2023/06/10 04:25:24;;;;;;;5.55;2.15;;;16.00;99.90;;;;;;5090546;28;20739;-76
2023/06/10 04:27:51;;;;;;;3.97;1.45;;;16.00;99.90;;;;;;5090584;28;20201;-72
2023/06/10 04:30:19;;;;;;;2.45;1.63;;;16.00;99.90;;;;;;5090792;28;20210;-71
2023/06/10 04:32:46;;;;;;;3.47;2.72;;;16.00;99.90;;;;;;5091659;28;20198;-71
2023/06/10 04:35:14;;;;;;;3.40;2.05;;;16.00;99.90;;;;;;5099029;28;20205;-71
2023/06/10 04:37:42;;;;;;;4.68;2.28;;;16.00;99.90;;;;;;5100553;28;20271;-71
2023/06/10 04:40:10;;;;;;;4.07;1.60;;;16.00;99.90;;;;;;5105030;28;20208;-74
2023/06/10 04:42:37;;;;;;;3.22;1.92;;;15.90;99.90;;;;;;5098053;28;20201;-75
2023/06/10 04:45:05;;;;;;;3.50;2.42;;;16.00;99.90;;;;;;5101910;28;20272;-73
2023/06/10 04:47:34;;;;;;;5.22;2.55;;;15.90;99.90;;;;;;5099503;28;20384;-71
2023/06/10 04:50:02;;;;;;;4.85;2.25;;;16.00;99.90;;;;;;5100349;28;20311;-74
2023/06/10 04:52:29;;;;;;;4.10;2.55;;;16.00;99.90;;;;;;5099119;28;20205;-73
2023/06/10 04:54:56;;;;;;;3.42;2.55;;;16.00;99.90;;;;;;5097356;28;20249;-73
2023/06/10 04:57:23;;;;;;;4.03;2.22;;;16.00;99.90;;;;;;5096291;28;20232;-71
2023/06/10 04:59:49;;;;;;;4.25;2.05;;;16.00;99.90;;;;;;5110058;28;20232;-74
2023/06/10 05:02:16;;;;;;;3.03;1.90;;;16.00;99.90;;;;;;5108529;28;20204;-72
2023/06/10 05:04:45;;;;;;;4.72;2.28;;;16.00;99.90;;;;;;5109136;28;20306;-72
2023/06/10 05:07:12;;;;;;;2.90;2.53;;;16.10;99.90;;;;;;5106842;28;20202;-72
2023/06/10 05:09:39;;;;;;;3.08;2.53;;;16.10;99.90;;;;;;5104963;28;20225;-74
2023/06/10 05:12:06;;;;;;;6.68;2.67;;;16.10;99.90;;;;;;5101209;28;20277;-74
2023/06/10 05:14:33;;;;;;;2.58;1.90;;;16.20;99.90;;;;;;5096134;28;20676;-75
2023/06/10 05:17:00;;;;;;;2.90;2.15;;;16.20;99.90;;;;;;5105887;28;20213;-72
2023/06/10 05:19:27;;;;;;;2.20;2.00;;;16.30;99.90;;;;;;5104535;28;20262;-73
2023/06/10 05:21:55;;;;;;;6.88;3.15;;;16.30;99.90;;;;;;5105939;28;20215;-72
2023/06/10 05:24:22;;;;;;;8.70;2.28;;;16.30;99.90;;;;;;5102350;28;20240;-72
2023/06/10 05:26:50;;;;;;;4.35;2.25;;;16.40;99.90;;;;;;5105502;28;20244;-74
2023/06/10 05:29:16;;;;;;;4.57;2.38;;;16.40;99.90;;;;;;5098719;28;20300;-72
2023/06/10 05:31:43;;;;;;;3.33;2.05;;;16.40;99.90;;;;;;5099548;28;20237;-73
2023/06/10 05:34:10;;;;;;;3.78;2.33;;;16.50;99.90;;;;;;5096636;28;20259;-73
2023/06/10 05:36:37;;;;;;;2.53;2.33;;;16.50;99.90;;;;;;5101108;28;20741;-74
2023/06/10 05:39:06;;;;;;;2.85;1.80;;;16.50;99.90;;;;;;5103838;28;20259;-74
2023/06/10 05:41:32;;;;;;;3.45;1.92;;;16.60;99.90;;;;;;5091843;28;20241;-74
2023/06/10 05:43:59;;;;;;;2.53;2.10;;;16.60;99.90;;;;;;5087900;28;20278;-73
2023/06/10 05:46:26;;;;;;;5.55;2.35;;;16.70;99.90;;;;;;5090017;28;20298;-73
2023/06/10 05:48:53;;;;;;;2.65;2.03;;;16.70;99.90;;;;;;5089354;28;20247;-74
2023/06/10 05:51:20;;;;;;;3.70;2.85;;;16.80;99.90;;;;;;5096383;28;20235;-75
2023/06/10 05:53:47;;;;;;;2.58;2.03;;;16.80;99.90;;;;;;5094520;28;20248;-75
2023/06/10 05:56:15;;;;;;;2.90;2.03;;;16.90;99.90;;;;;;5101615;28;20259;-72
2023/06/10 05:58:42;;;;;;;2.30;2.10;;;17.00;99.90;;;;;;5100324;28;20245;-74
2023/06/10 06:01:10;;;;;;;2.60;1.88;;;17.00;99.90;;;;;;5100009;28;20243;-73
2023/06/10 06:03:36;;;;;;;3.67;2.10;;;17.10;99.90;;;;;;5097636;28;20246;-74
2023/06/10 06:06:04;;;;;;;3.35;2.10;;;17.20;99.90;;;;;;5100666;28;20275;-73
2023/06/10 06:08:31;;;;;;;6.15;2.88;;;17.30;99.90;;;;;;5104082;28;21012;-78
2023/06/10 06:10:58;;;;;;;2.88;1.73;;;17.30;99.90;;;;;;5109318;28;20236;-79
2023/06/10 06:13:26;;;;;;;4.45;2.00;;;17.40;99.90;;;;;;5101458;28;20244;-82
2023/06/10 06:15:53;;;;;;;6.30;1.85;;;17.50;99.90;;;;;;5098247;28;20688;-77
2023/06/10 06:18:20;;;;;;;5.07;2.40;;;17.60;99.90;;;;;;5096185;28;20233;-77
2023/06/10 06:20:47;;;;;;;3.80;2.33;;;17.70;99.90;;;;;;5110406;28;20681;-75
2023/06/10 06:23:14;;;;;;;8.27;2.78;;;17.80;99.90;;;;;;5103274;28;20289;-78
2023/06/10 06:25:41;;;;;;;4.30;2.50;;;17.90;99.90;;;;;;5107463;28;20278;-80
2023/06/10 06:28:08;;;;;;;4.55;3.20;;;17.90;99.90;;;;;;5101701;28;20241;-77
2023/06/10 06:30:37;;;;;;;4.38;2.75;;;18.00;99.90;;;;;;5107660;28;20201;-77
2023/06/10 06:33:04;;;;;;;4.82;3.45;;;18.00;99.90;;;;;;5105279;28;20286;-78
2023/06/10 06:35:32;;;;;;;6.35;3.10;;;18.10;99.90;;;;;;5107444;28;20998;-77
2023/06/10 06:37:59;;;;;;;4.82;2.15;;;18.20;99.90;;;;;;5101653;28;20212;-78
2023/06/10 06:40:26;;;;;;;4.63;3.08;;;18.30;99.90;;;;;;5105515;28;20228;-75
2023/06/10 06:42:53;;;;;;;3.15;2.78;;;18.40;99.90;;;;;;5103570;28;20240;-76
2023/06/10 06:45:20;;;;;;;3.83;2.67;;;18.50;99.90;;;;;;5102811;28;20260;-78
2023/06/10 06:47:49;;;;;;;4.25;2.40;;;18.60;99.90;;;;;;5100215;28;20201;-77
2023/06/10 06:50:16;;;;;;;2.50;2.30;;;18.60;99.90;;;;;;5103893;28;20744;-79
2023/06/10 06:52:43;;;;;;;5.63;2.25;;;18.70;99.90;;;;;;5099312;28;20680;-75
2023/06/10 06:55:10;;;;;;;7.43;2.78;;;18.80;99.90;;;;;;5100958;28;20248;-78
2023/06/10 06:57:37;;;;;;;2.72;2.13;;;18.80;99.90;;;;;;5093183;28;20731;-77
2023/06/10 07:00:05;;;;;;;3.60;2.80;;;18.90;99.90;;;;;;5092535;28;20244;-77
2023/06/10 07:02:33;;;;;;;4.07;2.25;;;19.10;99.90;;;;;;5092535;28;20241;-77
2023/06/10 07:05:01;;;;;;;3.00;2.50;;;19.30;99.90;;;;;;5092391;28;20210;-78
2023/06/10 07:07:28;;;;;;;10.60;3.08;;;19.70;99.90;;;;;;5092014;28;20209;-77
2023/06/10 07:09:55;;;;;;;5.15;2.45;;;19.50;99.90;;;;;;5092252;28;20234;-78
2023/06/10 07:12:23;;;;;;;3.90;3.15;;;20.30;99.90;;;;;;5092795;28;20266;-76
2023/06/10 07:14:51;;;;;;;12.85;7.60;;;20.20;99.90;;;;;;5092227;28;20202;-77
2023/06/10 07:17:18;;;;;;;10.02;3.15;;;20.30;99.90;;;;;;5092489;28;20241;-77
2023/06/10 07:19:45;;;;;;;9.65;5.97;;;20.40;99.90;;;;;;5105839;28;20578;-75
2023/06/10 07:22:13;;;;;;;4.00;3.60;;;20.50;99.90;;;;;;5097327;28;20225;-78
2023/06/10 07:24:40;;;;;;;4.05;3.28;;;20.80;99.90;;;;;;5105996;28;20229;-77
2023/06/10 07:27:07;;;;;;;3.30;2.70;;;20.80;99.90;;;;;;5101820;28;20302;-78
2023/06/10 07:29:35;;;;;;;15.50;3.33;;;20.60;99.90;;;;;;5101352;28;20306;-79
2023/06/10 07:32:03;;;;;;;6.00;2.80;;;20.50;99.90;;;;;;5100159;28;20210;-77
2023/06/10 07:34:30;;;;;;;5.32;2.22;;;20.50;99.90;;;;;;5098088;28;20646;-78
2023/06/10 07:36:57;;;;;;;4.28;2.00;;;20.70;99.90;;;;;;5105063;28;20233;-77
2023/06/10 07:39:25;;;;;;;2.65;1.52;;;20.90;99.90;;;;;;5099949;28;20258;-76
2023/06/10 07:41:53;;;;;;;2.80;1.60;;;20.80;99.90;;;;;;5100432;28;20229;-77
2023/06/10 07:44:21;;;;;;;4.68;2.40;;;21.00;99.90;;;;;;5103801;28;20224;-75
2023/06/10 07:46:47;;;;;;;4.88;2.13;;;21.00;99.90;;;;;;5098948;28;20299;-76
2023/06/10 07:49:15;;;;;;;1.88;1.52;;;21.20;99.90;;;;;;5101945;28;20228;-76
2023/06/10 07:51:42;;;;;;;3.28;1.45;;;21.60;99.90;;;;;;5100794;28;20560;-75
2023/06/10 07:54:09;;;;;;;7.63;2.13;;;21.80;99.90;;;;;;5096884;28;20282;-77
2023/06/10 07:56:37;;;;;;;3.22;1.65;;;21.80;99.90;;;;;;5107751;28;20309;-76
2023/06/10 07:59:04;;;;;;;3.13;1.40;;;21.90;99.90;;;;;;5092595;28;20808;-74
2023/06/10 08:01:32;;;;;;;2.00;1.73;;;22.00;99.90;;;;;;5092294;28;20202;-77
2023/06/10 08:03:59;;;;;;;2.72;2.35;;;21.90;99.90;;;;;;5093128;28;20295;-73
2023/06/10 08:06:26;;;;;;;2.88;1.20;;;21.80;99.90;;;;;;5106620;28;20282;-73
2023/06/10 08:08:53;;;;;;;4.00;1.50;;;21.80;99.90;;;;;;5101148;28;20286;-74
2023/06/10 08:11:20;;;;;;;1.42;1.10;;;21.80;99.90;;;;;;5101195;28;20240;-73
2023/06/10 08:13:48;;;;;;;2.42;1.67;;;21.90;99.90;;;;;;5096393;28;20258;-74
2023/06/10 08:16:15;;;;;;;4.10;2.30;;;22.00;99.90;;;;;;5102086;28;20244;-74
2023/06/10 08:18:42;;;;;;;3.67;1.35;;;22.20;99.90;;;;;;5096537;28;20201;-75
2023/06/10 08:21:09;;;;;;;1.73;1.48;;;22.20;99.90;;;;;;5099566;28;20200;-77
2023/06/10 08:23:36;;;;;;;8.55;2.78;;;22.40;99.90;;;;;;5104963;28;20205;-72
2023/06/10 08:26:03;;;;;;;1.95;1.27;;;22.30;99.90;;;;;;5096016;28;20260;-76
2023/06/10 08:28:30;;;;;;;1.55;1.45;;;22.40;99.90;;;;;;5096243;28;20201;-74
2023/06/10 08:30:58;;;;;;;2.20;1.45;;;22.40;99.90;;;;;;5096192;28;20241;-72
2023/06/10 08:33:25;;;;;;;3.42;2.00;;;22.60;99.90;;;;;;5099615;28;20229;-73
2023/06/10 08:35:52;;;;;;;1.27;1.15;;;22.70;99.90;;;;;;5094132;28;20685;-72
2023/06/10 08:38:19;;;;;;;1.35;1.25;;;22.90;99.90;;;;;;5099173;28;20249;-72
2023/06/10 08:40:46;;;;;;;4.75;1.30;;;23.10;99.90;;;;;;5094344;28;20241;-71
2023/06/10 08:43:21;;;;;;;1.65;1.30;;;23.20;99.90;;;;;;5091318;28;20209;-71
2023/06/10 08:45:50;;;;;;;2.13;1.52;;;23.30;99.90;;;;;;5090017;28;20745;-72
2023/06/10 08:48:20;;;;;;;3.53;1.67;;;23.50;99.90;;;;;;5093598;28;20241;-72
2023/06/10 08:50:48;;;;;;;2.25;1.75;;;23.80;99.90;;;;;;5094762;28;20252;-72
2023/06/10 08:53:19;;;;;;;1.70;1.45;;;23.80;99.90;;;;;;5097820;28;20228;-77
2023/06/10 08:55:51;;;;;;;3.03;1.50;;;24.00;99.90;;;;;;5095671;28;20237;-72
2023/06/10 08:58:18;;;;;;;1.42;1.25;;;24.20;99.90;;;;;;5101351;28;20258;-72
2023/06/10 09:00:47;;;;;;;1.52;1.17;;;24.50;99.90;;;;;;5108903;28;20200;-72
2023/06/10 09:03:14;;;;;;;3.03;1.38;;;24.50;99.90;;;;;;5093161;28;20236;-70
2023/06/10 09:05:43;;;;;;;1.27;1.08;;;24.80;99.90;;;;;;5098707;28;20232;-77
2023/06/10 09:08:11;;;;;;;2.03;1.30;;;25.80;99.90;;;;;;5090822;28;20294;-72
2023/06/10 09:10:38;;;;;;;4.22;1.40;;;26.50;99.90;;;;;;5090679;28;20681;-71
2023/06/10 09:13:06;;;;;;;4.70;1.33;;;26.60;99.90;;;;;;5090022;28;20288;-72
2023/06/10 09:15:33;;;;;;;3.08;1.83;;;26.30;99.90;;;;;;5096519;28;20232;-74
2023/06/10 09:18:00;;;;;;;1.90;1.42;;;25.60;99.90;;;;;;5102466;28;20244;-72
2023/06/10 09:20:27;;;;;;;2.15;1.20;;;25.20;99.90;;;;;;5099835;28;20229;-73
2023/06/10 09:22:55;;;;;;;1.52;1.42;;;25.20;99.90;;;;;;5102870;28;20692;-72
2023/06/10 09:25:36;;;;;;;1.30;1.17;;;25.40;99.90;;;;;;5090155;28;20659;-74
2023/06/10 09:28:04;;;;;;;1.35;1.25;;;26.00;99.90;;;;;;5092054;28;20278;-73
2023/06/10 09:30:33;;;;;;;1.38;1.27;;;26.50;99.90;;;;;;5103133;28;20210;-74
2023/06/10 09:33:02;;;;;;;3.08;1.15;;;29.80;99.90;;;;;;5107912;28;20218;-74
2023/06/10 09:35:30;;;;;;;3.03;1.77;;;33.60;99.90;;;;;;5104979;28;20273;-74
2023/06/10 09:38:00;;;;;;;1.65;1.50;;;37.10;99.90;;;;;;5107843;28;20232;-75
2023/06/10 09:40:28;;;;;;;2.03;1.42;;;40.00;99.90;;;;;;5103147;28;20204;-74
2023/06/10 09:42:57;;;;;;;1.80;1.48;;;40.60;99.90;;;;;;5100532;28;20204;-74
2023/06/10 09:45:24;;;;;;;1.20;1.10;;;38.40;99.90;;;;;;5102142;28;20690;-75
2023/06/10 09:47:54;;;;;;;1.83;1.40;;;42.10;99.90;;;;;;5109402;28;20259;-75
2023/06/10 09:50:20;;;;;;;1.30;1.20;;;43.00;99.90;;;;;;5106623;28;20212;-75
2023/06/10 09:52:48;;;;;;;2.72;1.20;;;43.10;99.90;;;;;;5108064;28;20211;-75
2023/06/10 09:55:18;;;;;;;2.25;1.48;;;44.00;99.90;;;;;;5107774;28;20207;-75
2023/06/10 09:57:49;;;;;;;1.60;1.50;;;44.90;99.90;;;;;;5093631;28;20240;-75
2023/06/10 10:00:17;;;;;;;1.33;1.00;;;45.30;99.90;;;;;;5093992;28;20298;-75
2023/06/10 10:02:48;;;;;;;1.90;1.20;;;41.70;99.90;;;;;;5093615;28;20677;-75
2023/06/10 10:05:16;;;;;;;1.52;1.15;;;41.20;99.90;;;;;;5093744;28;20250;-75
2023/06/10 10:07:43;;;;;;;1.50;1.30;;;43.40;99.90;;;;;;5093438;28;20657;-75
2023/06/10 10:10:12;;;;;;;1.80;1.10;;;43.50;99.90;;;;;;5094251;28;20229;-75
2023/06/10 10:12:41;;;;;;;1.92;1.70;;;41.60;99.90;;;;;;5095054;28;20325;-75
2023/06/10 10:15:09;;;;;;;2.05;1.63;;;42.60;99.90;;;;;;5101968;28;20657;-76
2023/06/10 10:17:40;;;;;;;1.45;1.10;;;43.60;99.90;;;;;;5105921;28;20208;-75
2023/06/10 10:20:09;;;;;;;2.13;0.73;;;41.90;99.90;;;;;;5103993;28;20235;-75
2023/06/10 10:22:39;;;;;;;3.40;1.42;;;43.30;99.90;;;;;;5105534;28;20212;-76
2023/06/10 10:25:12;;;;;;;2.83;1.77;;;44.10;99.90;;;;;;5107314;28;20203;-75
2023/06/10 10:27:47;;;;;;;2.95;0.90;;;43.60;99.90;;;;;;5100870;28;20235;-75
2023/06/10 10:30:17;;;;;;;1.98;1.73;;;44.60;99.90;;;;;;5104801;28;20212;-76
2023/06/10 10:32:53;;;;;;;2.17;1.42;;;40.00;99.90;;;;;;5105198;28;20247;-76
2023/06/10 10:35:24;;;;;;;1.30;1.20;;;33.30;99.90;;;;;;5097534;28;20745;-75
2023/06/10 10:37:53;;;;;;;1.83;1.42;;;30.70;99.90;;;;;;5100565;28;20197;-75
2023/06/10 10:40:20;;;;;;;1.27;1.17;;;29.40;99.90;;;;;;5103163;28;20240;-74
2023/06/10 10:42:49;;;;;;;1.00;1.00;;;28.50;99.90;;;;;;5098979;28;20235;-75
2023/06/10 10:45:16;;;;;;;1.58;1.48;;;28.20;99.90;;;;;;5094736;28;20205;-74
2023/06/10 10:47:45;;;;;;;2.42;1.48;;;27.50;99.90;;;;;;5094467;28;20264;-75
2023/06/10 10:50:15;;;;;;;1.58;1.48;;;27.40;99.90;;;;;;5100914;28;20250;-75
2023/06/10 10:52:54;;;;;;;1.48;1.38;;;27.60;99.90;;;;;;5101641;28;20262;-75
2023/06/10 10:55:21;;;;;;;2.58;1.60;;;27.70;99.90;;;;;;5098443;28;20276;-75
2023/06/10 10:57:57;;;;;;;1.92;1.83;;;27.70;99.90;;;;;;5101009;28;20244;-74
2023/06/10 11:00:32;;;;;;;1.10;1.05;;;27.70;99.90;;;;;;5106910;28;20660;-75
2023/06/10 11:03:07;;;;;;;1.30;1.20;;;27.70;99.90;;;;;;5111672;28;20306;-75
2023/06/10 11:05:39;;;;;;;1.52;1.20;;;27.90;99.90;;;;;;5109725;28;20205;-75
2023/06/10 11:08:06;;;;;;;1.58;1.48;;;28.00;99.90;;;;;;5106592;28;20221;-74
2023/06/10 11:10:34;;;;;;;1.67;1.30;;;28.10;99.90;;;;;;5108151;28;20206;-74
2023/06/10 11:13:07;;;;;;;1.30;1.20;;;28.00;99.90;;;;;;5101933;28;21026;-74
2023/06/10 11:15:38;;;;;;;1.05;1.00;;;28.30;99.90;;;;;;5103335;28;20206;-76
2023/06/10 11:18:13;;;;;;;1.77;0.90;;;28.10;99.90;;;;;;5094180;28;20241;-75
2023/06/10 11:20:55;;;;;;;1.95;1.08;;;28.20;99.90;;;;;;5095343;28;20240;-76
2023/06/10 11:23:39;;;;;;;1.77;1.63;;;28.30;99.90;;;;;;5100767;28;20240;-75
2023/06/10 11:26:17;;;;;;;1.00;1.00;;;28.50;99.90;;;;;;5099285;28;20669;-75
2023/06/10 11:29:15;;;;;;;4.82;1.85;;;28.70;99.90;;;;;;5107727;28;20235;-75
2023/06/10 11:31:47;;;;;;;2.70;1.42;;;28.50;99.90;;;;;;5092340;28;20198;-75
2023/06/10 11:34:14;;;;;;;1.20;1.08;;;28.50;99.90;;;;;;5092069;28;20250;-74
2023/06/10 11:36:45;;;;;;;1.77;1.67;;;28.60;99.90;;;;;;5090805;28;20292;-75
2023/06/10 11:39:12;;;;;;;1.10;0.98;;;28.70;99.90;;;;;;5091755;28;20284;-75
2023/06/10 11:41:40;;;;;;;3.22;1.25;;;29.00;99.90;;;;;;5097238;28;20657;-76
2023/06/10 11:44:13;;;;;;;1.17;1.08;;;28.40;99.90;;;;;;5099761;28;20197;-74
2023/06/10 11:46:42;;;;;;;1.80;1.05;;;28.00;99.90;;;;;;5103069;28;20733;-75
2023/06/10 11:49:09;;;;;;;1.77;1.67;;;27.50;99.90;;;;;;5092734;28;20206;-76
2023/06/10 11:51:39;;;;;;;1.58;1.48;;;27.20;99.90;;;;;;5096619;28;20216;-77
2023/06/10 11:54:07;;;;;;;1.80;1.40;;;26.90;99.90;;;;;;5093713;28;20751;-76
2023/06/10 11:56:34;;;;;;;1.40;1.30;;;26.80;99.90;;;;;;5094142;28;20677;-77
2023/06/10 11:59:04;;;;;;;1.58;1.48;;;27.10;99.90;;;;;;5090976;28;20644;-76
2023/06/10 12:01:34;;;;;;;2.55;1.35;;;27.10;99.90;;;;;;5091621;28;20237;-75
2023/06/10 12:04:03;;;;;;;2.35;1.25;;;27.40;99.90;;;;;;5090452;28;22181;-76
2023/06/10 12:06:40;;;;;;;1.35;1.25;;;27.70;99.90;;;;;;5099977;28;20201;-76
2023/06/10 12:09:07;;;;;;;1.52;1.42;;;27.90;99.90;;;;;;5095622;28;20205;-76
2023/06/10 12:11:34;;;;;;;1.50;1.40;;;27.80;99.90;;;;;;5097659;28;20660;-76
2023/06/10 12:14:03;;;;;;;2.03;1.92;;;27.80;99.90;;;;;;5092713;28;20968;-76
2023/06/10 12:16:32;;;;;;;1.27;1.23;;;28.00;99.90;;;;;;5091696;28;20210;-76
2023/06/10 12:19:03;;;;;;;1.30;1.20;;;28.00;99.90;;;;;;5090982;28;20241;-76
2023/06/10 12:21:31;;;;;;;1.40;1.30;;;28.30;99.90;;;;;;5091046;28;20208;-76
2023/06/10 12:24:05;;;;;;;1.70;1.60;;;28.30;99.90;;;;;;5089850;28;20312;-76
2023/06/10 12:26:40;;;;;;;1.40;1.30;;;28.30;99.90;;;;;;5103177;28;20711;-76
2023/06/10 12:29:29;;;;;;;1.55;1.45;;;27.70;99.90;;;;;;5093075;28;20232;-75
2023/06/10 12:32:02;;;;;;;2.03;0.90;;;27.20;99.90;;;;;;5086450;28;20581;-76
2023/06/10 12:34:31;;;;;;;1.35;1.25;;;27.60;99.90;;;;;;5090776;28;20664;-76
2023/06/10 12:36:58;;;;;;;2.08;0.95;;;28.00;99.90;;;;;;5090498;28;20205;-75
2023/06/10 12:39:26;;;;;;;1.65;1.55;;;27.70;99.90;;;;;;5090434;28;20677;-75
2023/06/10 12:41:53;;;;;;;1.40;1.30;;;27.20;99.90;;;;;;5090068;28;20301;-75
2023/06/10 12:44:30;;;;;;;2.78;1.40;;;27.00;99.90;;;;;;5090740;28;20721;-75
2023/06/10 12:46:56;;;;;;;1.30;1.20;;;27.20;99.90;;;;;;5100277;28;20683;-76
2023/06/10 12:49:26;;;;;;;2.20;1.30;;;27.70;99.90;;;;;;5101630;28;20236;-76
2023/06/10 12:51:53;;;;;;;1.30;1.20;;;28.10;99.90;;;;;;5096125;28;20204;-76